Bethesda, MD

3:38 AM EST on January 26, 2015 (GMT -0500)
Andrews Air Force Base-Naf | Change Station
CLOSE
Current Station
Airport
Location: Andrews AFB,
Elevation: 282 ft
Nearby Weather Stations
Active Advisory: Winter Weather Advisory

Elev 282 ft 38.81 °N, 76.87 °W | Updated 17 minutes ago

Overcast
Overcast
39 °F
Feels Like 34 °F
N
8
Wind Variable Wind from NE

Today
High -- | Low -- °F
--% Chance of Precip.
Yesterday
High -- | Low -- °F
Precip. -- in
7:19 AM 5:22 PM
Waxing Crescent, 41% visible
Pressure 29.80 in
Visibility 10.0 miles
Clouds Overcast 4300 ft
Windchill 34 °F
Dew Point 36 °F
Humidity 87%
Rainfall 0.00 in
Snow Depth Not available.
UV 0 out of 12
Pollen 1.30 out of 12
Air Quality Not available.
Flu Activity Not available.
SPECI KADW 260821Z AUTO 05007KT 10SM -RA OVC043 04/02 A2980 RMK AO2 DZE0815 $

More Conditions Fewer Conditions

Pressure 29.80 in
Visibility 10.0 miles
Clouds Overcast 4300 ft
Windchill 34 °F
Dew Point 36 °F
Humidity 87%
Rainfall 0.00 in
Snow Depth Not available.
UV 0 out of 12
Pollen 1.30 out of 12
Air Quality Not available.
Flu Activity Not available.
SPECI KADW 260821Z AUTO 05007KT 10SM -RA OVC043 04/02 A2980 RMK AO2 DZE0815 $

More Conditions Fewer Conditions

10-Day Weather Forecast

Almanac

Astronomy

Jan. 26, 2015 Rise Set
Actual Time
Civil Twilight
Nautical Twilight
Astronomical Twilight
Moon
Length of Visible Light
Length of Day
Tomorrow will be .
, % of the Moon is Illuminated

Today's Extremes

State Highs State Lows

Community

WunderPhotos

Upload Photos

1,790,163 photos uploaded!

WunderBlogs® & News

Nearby

Air Quality

  Air Quality AQ Index Pollutant
Not available.

Snow Depth

Station Depth Elevation

Earthquake Activity

City Distance Mag. Time & Date
Minimum magnitude displayed is 2.5.

Coastal Water Temperatures

Place Temperature

Nearby Weather Stations